createdAt,value
2023-05-14T00:03:19.070Z,22.58
2023-05-14T00:08:22.233Z,20.35
2023-05-14T00:13:26.347Z,23.67
2023-05-14T00:18:29.589Z,29.42
2023-05-14T00:23:32.865Z,28.25
2023-05-14T00:28:35.956Z,25.27
2023-05-14T00:33:39.214Z,27.70
2023-05-14T00:38:42.720Z,29.23
2023-05-14T00:43:46.008Z,27.70
2023-05-14T00:48:49.460Z,20.80
2023-05-14T00:53:52.870Z,26.02
2023-05-14T00:58:56.253Z,20.15
2023-05-14T01:03:59.714Z,23.83
2023-05-14T01:09:06.762Z,25.45
2023-05-14T01:14:41.765Z,23.27
2023-05-14T01:19:47.750Z,16.23
2023-05-14T01:24:51.154Z,19.23
2023-05-14T01:30:03.716Z,23.75
2023-05-14T01:35:08.755Z,28.05
2023-05-14T01:40:12.693Z,21.95
2023-05-14T01:45:16.686Z,19.63
2023-05-14T01:50:20.049Z,29.52
2023-05-14T01:55:26.803Z,23.23
2023-05-14T02:00:30.876Z,24.10
2023-05-14T02:05:34.806Z,21.63
2023-05-14T02:10:37.870Z,30.23
2023-05-14T02:15:41.241Z,22.92
2023-05-14T02:20:44.385Z,26.33
2023-05-14T02:25:47.731Z,29.45
2023-05-14T02:30:50.860Z,37.17
2023-05-14T02:35:54.190Z,34.25
2023-05-14T02:40:57.628Z,31.15
2023-05-14T02:46:01.089Z,31.67
2023-05-14T02:51:04.974Z,25.42
2023-05-14T02:56:08.395Z,21.63
2023-05-14T03:01:11.832Z,24.23
2023-05-14T03:06:15.375Z,21.60
2023-05-14T03:11:18.622Z,23.27
2023-05-14T03:16:21.857Z,24.52
2023-05-14T03:21:26.527Z,21.65
2023-05-14T03:26:29.661Z,26.90
2023-05-14T03:31:33.146Z,23.10
2023-05-14T03:36:39.259Z,24.27
2023-05-14T03:41:42.534Z,26.58
2023-05-14T03:46:45.827Z,29.63
2023-05-14T03:51:49.747Z,28.52
2023-05-14T03:56:53.379Z,21.10
2023-05-14T04:01:57.498Z,24.83
2023-05-14T04:07:02.611Z,29.48
2023-05-14T04:12:07.034Z,26.40
2023-05-14T04:17:13.194Z,23.58
2023-05-14T04:22:16.728Z,26.38
2023-05-14T04:27:22.196Z,21.90
2023-05-14T04:32:26.137Z,24.52
2023-05-14T04:37:31.447Z,18.60
2023-05-14T04:42:35.936Z,15.70
2023-05-14T04:47:39.290Z,18.13
2023-05-14T04:52:43.432Z,23.40
2023-05-14T04:57:47.368Z,21.90
2023-05-14T05:02:51.129Z,21.58
2023-05-14T05:07:55.180Z,23.40
2023-05-14T05:12:59.161Z,18.00
2023-05-14T05:18:03.177Z,31.30
2023-05-14T05:23:06.919Z,29.58
2023-05-14T05:28:11.061Z,21.95
2023-05-14T05:33:14.648Z,17.38
2023-05-14T05:38:21.601Z,19.15
2023-05-14T05:43:24.915Z,24.17
2023-05-14T05:48:28.745Z,22.30
2023-05-14T05:53:32.575Z,27.95
2023-05-14T05:58:36.506Z,27.00
2023-05-14T06:03:40.182Z,23.42
2023-05-14T06:08:43.765Z,19.10
2023-05-14T06:13:47.690Z,34.00
2023-05-14T06:18:53.220Z,26.00
2023-05-14T06:23:56.571Z,15.70
2023-05-14T06:29:00.187Z,22.67
2023-05-14T06:34:04.221Z,26.52
2023-05-14T06:39:07.964Z,25.80
2023-05-14T06:44:11.391Z,20.35
2023-05-14T06:49:15.262Z,26.13
2023-05-14T06:54:20.742Z,21.52
2023-05-14T06:59:24.666Z,24.10
2023-05-14T07:04:28.239Z,22.25
2023-05-14T07:09:31.806Z,22.83
2023-05-14T07:14:35.346Z,22.40
2023-05-14T07:19:39.199Z,25.58
2023-05-14T07:24:43.434Z,27.95
2023-05-14T07:29:47.378Z,25.85
2023-05-14T07:34:51.670Z,22.92
2023-05-14T07:39:54.884Z,29.33
2023-05-14T07:44:58.674Z,28.67
2023-05-14T07:50:02.753Z,28.90
2023-05-14T07:55:07.148Z,24.13
2023-05-14T08:00:11.961Z,22.13
2023-05-14T08:05:18.655Z,31.20
2023-05-14T08:10:22.520Z,23.58
2023-05-14T08:15:27.853Z,24.77
2023-05-14T08:20:32.124Z,22.52
2023-05-14T08:25:36.381Z,24.27
2023-05-14T08:30:40.649Z,24.30
2023-05-14T08:35:44.882Z,18.48
2023-05-14T08:40:58.956Z,22.85
2023-05-14T08:46:06.282Z,19.92
2023-05-14T08:51:09.946Z,20.23
2023-05-14T08:56:14.997Z,19.23
2023-05-14T09:01:19.962Z,22.77
2023-05-14T09:06:24.854Z,24.55
2023-05-14T09:11:29.166Z,23.00
2023-05-14T09:16:33.540Z,28.38
2023-05-14T09:21:37.759Z,24.63
2023-05-14T09:26:42.096Z,37.65
2023-05-14T09:31:46.490Z,20.15
2023-05-14T09:57:43.569Z,28.42
2023-05-14T10:02:49.067Z,28.17
2023-05-14T10:07:57.310Z,21.67
2023-05-14T10:28:25.659Z,31.08
2023-05-14T10:33:30.024Z,28.60
2023-05-14T10:38:35.996Z,25.85
2023-05-14T10:43:42.898Z,42.97
2023-05-14T10:48:47.060Z,40.20
2023-05-14T10:53:51.511Z,32.00
2023-05-14T10:58:59.352Z,41.17
2023-05-14T11:04:04.022Z,33.72
2023-05-14T11:09:08.009Z,28.38
2023-05-14T11:14:13.104Z,27.65
2023-05-14T11:19:22.001Z,25.02
2023-05-14T11:24:25.659Z,24.77
2023-05-14T11:29:29.364Z,27.77
2023-05-14T11:34:34.979Z,26.80
2023-05-14T11:39:38.432Z,32.37
2023-05-14T11:44:44.682Z,37.85
2023-05-14T11:54:52.367Z,30.00
2023-05-14T11:59:59.762Z,20.92
2023-05-14T12:05:03.689Z,21.20
2023-05-14T12:10:07.259Z,24.88
2023-05-14T12:15:16.659Z,28.52
2023-05-14T12:20:23.941Z,29.60
2023-05-14T12:25:27.745Z,24.00
2023-05-14T12:30:38.320Z,27.77
2023-05-14T12:35:42.217Z,31.80
2023-05-14T12:40:46.317Z,28.35
2023-05-14T12:45:50.505Z,26.90
2023-05-14T12:55:24.795Z,25.30
2023-05-14T13:00:29.232Z,26.52
2023-05-14T13:05:33.755Z,22.73
2023-05-14T13:10:37.065Z,28.10
2023-05-14T13:15:40.581Z,32.70
2023-05-14T13:20:47.847Z,29.00
2023-05-14T13:25:51.463Z,36.20
2023-05-14T13:31:07.407Z,29.27
2023-05-14T13:36:14.309Z,31.23
2023-05-14T13:46:21.760Z,20.88
2023-05-14T13:51:25.550Z,23.08
2023-05-14T13:56:29.404Z,29.38
2023-05-14T14:01:32.991Z,25.02
2023-05-14T14:06:37.302Z,31.88
2023-05-14T14:11:41.562Z,28.50
2023-05-14T14:16:45.721Z,18.30
2023-05-14T14:26:57.965Z,24.35
2023-05-14T14:32:01.761Z,24.00
2023-05-14T14:37:05.894Z,29.08
2023-05-14T14:42:09.120Z,25.67
2023-05-14T14:47:12.618Z,28.38
2023-05-14T14:52:16.238Z,24.23
2023-05-14T14:57:19.288Z,29.33
2023-05-14T15:02:23.184Z,19.80
2023-05-14T15:07:26.542Z,30.73
2023-05-14T15:12:30.633Z,25.45
2023-05-14T15:17:34.216Z,33.05
2023-05-14T15:22:37.865Z,33.85
2023-05-14T15:27:41.897Z,40.42
2023-05-14T15:32:46.858Z,22.85
2023-05-14T15:37:51.154Z,33.70
2023-05-14T15:42:54.243Z,25.58
2023-05-14T15:47:57.822Z,31.00
2023-05-14T15:53:01.784Z,40.00
2023-05-14T15:58:05.799Z,27.67
2023-05-14T16:03:10.392Z,28.67
2023-05-14T16:08:13.877Z,32.63
2023-05-14T16:13:18.012Z,30.52
2023-05-14T16:18:22.480Z,31.02
2023-05-14T16:23:27.749Z,28.95
2023-05-14T16:28:31.747Z,36.97
2023-05-14T16:33:36.107Z,32.28
2023-05-14T16:38:52.342Z,32.45
2023-05-14T16:44:03.872Z,37.05
2023-05-14T16:49:07.581Z,34.30
2023-05-14T16:54:11.430Z,32.17
2023-05-14T16:59:16.892Z,25.85
2023-05-14T17:04:20.414Z,30.23
2023-05-14T17:09:24.159Z,28.40
2023-05-14T17:14:28.291Z,33.97
2023-05-14T17:19:32.716Z,30.38
2023-05-14T17:24:36.706Z,36.65
2023-05-14T17:29:40.421Z,39.65
2023-05-14T17:34:45.417Z,38.13
2023-05-14T17:39:49.090Z,27.75
2023-05-14T17:44:54.041Z,29.92
2023-05-14T17:49:57.562Z,42.70
2023-05-14T17:55:01.939Z,30.90
2023-05-14T18:00:05.758Z,35.67
2023-05-14T18:05:14.068Z,33.85
2023-05-14T18:10:17.548Z,34.50
2023-05-14T18:15:21.835Z,31.15
2023-05-14T18:20:25.433Z,26.75
2023-05-14T18:25:29.321Z,30.00
2023-05-14T18:30:33.390Z,31.17
2023-05-14T18:35:36.889Z,40.75
2023-05-14T18:40:40.400Z,30.77
2023-05-14T18:45:44.012Z,39.47
2023-05-14T18:50:47.564Z,44.45
2023-05-14T18:55:51.597Z,43.35
2023-05-14T19:00:57.919Z,45.83
2023-05-14T19:06:01.504Z,32.83
2023-05-14T19:11:05.473Z,28.55
2023-05-14T19:16:08.848Z,35.85
2023-05-14T19:21:12.390Z,43.38
2023-05-14T19:26:16.524Z,40.60
2023-05-14T19:31:20.465Z,35.25
2023-05-14T19:36:24.386Z,52.30
2023-05-14T19:41:28.408Z,38.10
2023-05-14T19:46:32.034Z,38.15
2023-05-14T19:51:36.050Z,35.30
2023-05-14T19:56:40.725Z,32.00
2023-05-14T20:01:44.205Z,39.15
2023-05-14T20:06:47.953Z,27.85
2023-05-14T20:11:51.609Z,35.40
2023-05-14T20:16:55.088Z,36.45
2023-05-14T20:21:58.628Z,41.90
2023-05-14T20:27:02.109Z,40.15
2023-05-14T20:32:06.012Z,39.28
2023-05-14T20:37:10.533Z,36.85
2023-05-14T20:42:14.053Z,29.85
2023-05-14T20:47:21.771Z,31.42
2023-05-14T20:52:25.592Z,33.22
2023-05-14T20:57:29.862Z,33.92
2023-05-14T21:02:33.741Z,33.33
2023-05-14T21:07:37.635Z,53.38
2023-05-14T21:12:42.608Z,29.60
2023-05-14T21:17:47.103Z,36.65
2023-05-14T21:22:50.756Z,29.17
2023-05-14T21:27:54.583Z,36.05
2023-05-14T21:32:58.690Z,38.50
2023-05-14T21:38:02.646Z,39.58
2023-05-14T21:43:05.712Z,36.45
2023-05-14T21:48:09.434Z,39.95
2023-05-14T21:53:13.792Z,34.92
2023-05-14T21:58:16.910Z,34.65
2023-05-14T22:03:21.186Z,33.47
2023-05-14T22:08:24.434Z,36.53
2023-05-14T22:13:29.011Z,42.30
2023-05-14T22:18:32.768Z,28.83
2023-05-14T22:23:36.696Z,35.05
2023-05-14T22:28:43.195Z,32.88
2023-05-14T22:33:48.363Z,44.53
2023-05-14T22:38:51.910Z,45.95
2023-05-14T22:43:55.074Z,36.45
2023-05-14T22:48:58.676Z,33.10
2023-05-14T22:54:02.305Z,39.45
2023-05-14T22:59:05.978Z,40.20
2023-05-14T23:04:09.071Z,42.80
2023-05-14T23:09:12.635Z,46.05
2023-05-14T23:14:20.483Z,35.50
2023-05-14T23:19:23.688Z,51.60
2023-05-14T23:24:27.410Z,31.70
2023-05-14T23:29:30.500Z,45.75
2023-05-14T23:34:35.016Z,51.30
2023-05-14T23:39:39.104Z,40.15
2023-05-14T23:44:42.285Z,45.00
2023-05-14T23:49:45.798Z,46.95
2023-05-14T23:54:49.852Z,64.85
2023-05-14T23:59:53.884Z,64.85
